Time;durP1;ratioP1;P1;durP2;ratioP2;P2;SDS_P1;SDS_P2;PMS_P1;PMS_P2;Temp;Humidity;BMP_temperature;BMP_pressure;BME280_temperature;BME280_humidity;BME280_pressure;Samples;Min_cycle;Max_cycle;Signal;HPM_P1;HPM_P2
2021/01/22 00:02:15;;;;;;;0.83;0.70;;;11.00;1.00;;;;;;5050863;28;20530;-77
2021/01/22 00:04:43;;;;;;;2.60;0.70;;;11.00;1.00;;;;;;5032373;28;20439;-78
2021/01/22 00:07:09;;;;;;;0.70;0.70;;;11.00;1.00;;;;;;5044936;28;20442;-77
2021/01/22 00:09:35;;;;;;;1.17;0.90;;;;;;;;;;5053815;28;20445;-77
2021/01/22 00:12:01;;;;;;;1.17;1.00;;;11.00;1.00;;;;;;5038812;28;20664;-77
2021/01/22 00:14:27;;;;;;;1.37;0.70;;;;;;;;;;5051954;28;20419;-77
2021/01/22 00:16:52;;;;;;;0.70;0.67;;;11.00;1.00;;;;;;5051901;28;20168;-77
2021/01/22 00:19:18;;;;;;;0.63;0.63;;;;;;;;;;5053412;28;20390;-77
2021/01/22 00:21:44;;;;;;;2.03;0.90;;;10.90;1.00;;;;;;5053510;28;20192;-77
2021/01/22 00:24:10;;;;;;;20.67;1.80;;;;;;;;;;5053530;28;20921;-76
2021/01/22 00:26:35;;;;;;;1.13;0.70;;;10.90;1.00;;;;;;5053229;28;20171;-77
2021/01/22 00:29:01;;;;;;;1.80;0.60;;;;;;;;;;5053205;28;20417;-77
2021/01/22 00:31:27;;;;;;;0.80;0.67;;;10.90;1.00;;;;;;5053081;28;20224;-77
2021/01/22 00:33:53;;;;;;;0.70;0.70;;;;;;;;;;5036467;28;20437;-77
2021/01/22 00:36:18;;;;;;;4.10;1.20;;;10.90;1.00;;;;;;5033186;28;20153;-77
2021/01/22 00:38:45;;;;;;;3.87;0.80;;;;;;;;;;5033209;28;20855;-77
2021/01/22 00:41:10;;;;;;;1.10;1.00;;;11.00;1.00;;;;;;5051384;28;20192;-75
2021/01/22 00:43:36;;;;;;;0.80;0.80;;;;;;;;;;5052678;28;20399;-75
2021/01/22 00:46:02;;;;;;;0.90;0.70;;;;;;;;;;5052924;28;20164;-75
2021/01/22 00:48:28;;;;;;;0.77;0.77;;;11.10;1.00;;;;;;5051117;28;20820;-76
2021/01/22 00:50:55;;;;;;;2.07;0.93;;;;;;;;;;5052710;28;20449;-75
2021/01/22 00:53:21;;;;;;;3.30;0.90;;;11.00;1.00;;;;;;5052904;28;20149;-75
2021/01/22 00:55:49;;;;;;;1.37;1.07;;;;;;;;;;5053107;28;20398;-76
2021/01/22 00:58:15;;;;;;;2.43;0.90;;;;;;;;;;5052926;28;20394;-77
2021/01/22 01:00:41;;;;;;;0.90;0.80;;;;;;;;;;5049420;28;20447;-77
2021/01/22 01:03:07;;;;;;;1.10;1.00;;;;;;;;;;5042993;28;20464;-77
2021/01/22 01:05:33;;;;;;;0.63;0.63;;;11.20;1.00;;;;;;5043062;28;20430;-77
2021/01/22 01:07:59;;;;;;;2.57;0.80;;;11.20;1.00;;;;;;5052621;28;20816;-76
2021/01/22 01:10:25;;;;;;;5.50;0.70;;;;;;;;;;5051507;28;20188;-75
2021/01/22 01:12:50;;;;;;;4.60;1.20;;;11.30;1.00;;;;;;5037615;28;20263;-75
2021/01/22 01:15:16;;;;;;;0.60;0.53;;;11.30;1.00;;;;;;5056806;28;20450;-77
2021/01/22 01:17:42;;;;;;;1.43;0.90;;;;;;;;;;5050388;28;20535;-77
2021/01/22 01:20:09;;;;;;;0.57;0.57;;;11.30;1.00;;;;;;5036695;28;20188;-76
2021/01/22 01:22:36;;;;;;;5.13;0.70;;;11.30;1.00;;;;;;5037151;28;20418;-77
2021/01/22 01:25:04;;;;;;;2.00;0.93;;;11.20;1.00;;;;;;5037179;28;20399;-75
2021/01/22 01:27:29;;;;;;;1.37;1.07;;;11.30;1.00;;;;;;5036712;28;20410;-75
2021/01/22 01:29:55;;;;;;;0.70;0.70;;;;;;;;;;5036685;28;20762;-75
2021/01/22 01:32:21;;;;;;;1.07;0.60;;;11.10;1.00;;;;;;5040546;28;20207;-75
2021/01/22 01:34:47;;;;;;;2.97;0.70;;;;;;;;;;5056396;28;20895;-76
2021/01/22 01:37:12;;;;;;;0.73;0.73;;;11.20;1.00;;;;;;5055212;28;20175;-76
2021/01/22 01:39:38;;;;;;;1.43;0.90;;;;;;;;;;5056091;28;20897;-75
2021/01/22 01:42:04;;;;;;;1.67;0.60;;;11.00;1.00;;;;;;5056567;28;20704;-76
2021/01/22 01:44:30;;;;;;;1.23;0.70;;;11.00;1.00;;;;;;5056020;28;20730;-74
2021/01/22 01:46:56;;;;;;;0.80;0.80;;;;;;;;;;5047205;28;20457;-75
2021/01/22 01:49:22;;;;;;;1.53;0.60;;;10.90;1.00;;;;;;5036566;28;20181;-74
2021/01/22 01:51:48;;;;;;;1.23;0.70;;;10.90;1.00;;;;;;5036185;28;20462;-75
2021/01/22 01:54:14;;;;;;;0.63;0.63;;;10.80;1.00;;;;;;5036119;28;20399;-74
2021/01/22 01:56:40;;;;;;;0.67;0.67;;;;;;;;;;5036521;28;20222;-74
2021/01/22 01:59:05;;;;;;;2.33;1.03;;;10.80;1.00;;;;;;5051318;28;20423;-75
2021/01/22 02:01:35;;;;;;;0.80;0.60;;;10.80;1.00;;;;;;5036398;28;20472;-75
2021/01/22 02:04:00;;;;;;;1.50;1.07;;;10.80;1.00;;;;;;5035409;28;20207;-75
2021/01/22 02:06:26;;;;;;;1.00;0.60;;;;;;;;;;5039144;28;20901;-74
2021/01/22 02:08:52;;;;;;;0.80;0.80;;;10.80;1.00;;;;;;5055752;28;20409;-76
2021/01/22 02:11:19;;;;;;;0.70;0.70;;;10.80;1.00;;;;;;5047315;28;20450;-76
2021/01/22 02:13:47;;;;;;;0.60;0.60;;;10.80;1.00;;;;;;5047356;28;20184;-76
2021/01/22 02:16:13;;;;;;;2.13;1.00;;;10.70;1.00;;;;;;5047672;28;20422;-76
2021/01/22 02:18:40;;;;;;;0.80;0.80;;;10.70;1.00;;;;;;5050211;28;20529;-77
2021/01/22 02:21:09;;;;;;;0.50;0.50;;;10.70;1.00;;;;;;5055718;28;20558;-77
2021/01/22 02:23:38;;;;;;;1.70;0.50;;;10.70;1.00;;;;;;5037495;28;20423;-75
2021/01/22 02:26:19;;;;;;;1.73;0.63;;;10.70;1.00;;;;;;5034706;28;20394;-74
2021/01/22 02:28:47;;;;;;;0.50;0.50;;;10.70;1.00;;;;;;5035544;28;20431;-75
2021/01/22 02:31:15;;;;;;;0.50;0.50;;;10.70;1.00;;;;;;5035308;28;20471;-72
2021/01/22 02:33:43;;;;;;;0.50;0.50;;;10.70;1.00;;;;;;5035651;28;20419;-75
2021/01/22 02:36:11;;;;;;;0.70;0.50;;;10.70;1.00;;;;;;5035797;28;20415;-75
2021/01/22 02:38:38;;;;;;;0.60;0.60;;;10.80;1.00;;;;;;5035109;28;20878;-74
2021/01/22 02:41:04;;;;;;;0.70;0.53;;;10.80;1.00;;;;;;5035550;28;20567;-74
2021/01/22 02:43:30;;;;;;;1.33;0.67;;;10.90;1.00;;;;;;5035206;28;20463;-74
2021/01/22 02:45:57;;;;;;;0.50;0.50;;;10.70;1.00;;;;;;5035193;28;20497;-75
2021/01/22 02:48:23;;;;;;;0.40;0.40;;;10.80;1.00;;;;;;5035442;28;20472;-74
2021/01/22 02:50:49;;;;;;;0.83;0.50;;;10.80;1.00;;;;;;5035085;28;20439;-74
2021/01/22 02:53:15;;;;;;;0.60;0.50;;;;;;;;;;5035069;28;20395;-75
2021/01/22 02:55:41;;;;;;;1.13;0.50;;;10.80;1.00;;;;;;5035454;28;20265;-74
2021/01/22 02:58:22;;;;;;;0.50;0.50;;;10.80;1.00;;;;;;5034970;28;20399;-74
2021/01/22 03:00:52;;;;;;;0.80;0.60;;;10.90;1.00;;;;;;5034888;28;20180;-75
2021/01/22 03:03:49;;;;;;;0.73;0.60;;;10.90;1.00;;;;;;5046775;28;20517;-75
2021/01/22 03:06:21;;;;;;;0.90;0.70;;;10.80;1.00;;;;;;5044638;28;20596;-76
2021/01/22 03:08:50;;;;;;;0.67;0.50;;;10.80;1.00;;;;;;5053434;28;20533;-76
2021/01/22 03:11:18;;;;;;;0.60;0.60;;;10.90;1.00;;;;;;5045314;28;20508;-76
2021/01/22 03:13:47;;;;;;;0.50;0.50;;;10.90;1.00;;;;;;5052259;28;20930;-76
2021/01/22 03:16:12;;;;;;;0.80;0.70;;;10.90;1.00;;;;;;5034691;28;20865;-76
2021/01/22 03:18:38;;;;;;;0.73;0.60;;;;;;;;;;5043517;28;20522;-76
2021/01/22 03:21:08;;;;;;;2.03;0.73;;;10.90;1.00;;;;;;5034605;28;20183;-75
2021/01/22 03:23:34;;;;;;;0.60;0.60;;;;;;;;;;5034428;28;20408;-74
2021/01/22 03:26:00;;;;;;;3.93;0.50;;;10.90;1.00;;;;;;5034861;28;20414;-76
2021/01/22 03:28:26;;;;;;;1.27;0.60;;;;;;;;;;5034471;28;20879;-77
2021/01/22 03:30:52;;;;;;;0.70;0.70;;;10.90;1.00;;;;;;5034156;28;20485;-76
2021/01/22 03:33:18;;;;;;;0.93;0.60;;;;;;;;;;5034923;28;20425;-76
2021/01/22 03:35:43;;;;;;;2.30;0.90;;;10.90;1.00;;;;;;5034120;28;20164;-76
2021/01/22 03:38:09;;;;;;;1.63;1.07;;;;;;;;;;5034126;28;20411;-78
2021/01/22 03:40:36;;;;;;;3.90;1.00;;;10.90;1.00;;;;;;5034182;28;20243;-76
2021/01/22 03:43:02;;;;;;;6.73;0.97;;;;;;;;;;5034487;28;20442;-77
2021/01/22 03:45:27;;;;;;;0.60;0.60;;;11.00;1.00;;;;;;5033901;28;20458;-77
2021/01/22 03:47:53;;;;;;;0.70;0.60;;;;;;;;;;5041989;28;20429;-76
2021/01/22 03:50:19;;;;;;;2.40;1.07;;;;;;;;;;5053953;28;20491;-76
2021/01/22 03:52:45;;;;;;;1.13;0.80;;;11.00;1.00;;;;;;5054041;28;20407;-77
2021/01/22 03:55:11;;;;;;;2.53;0.63;;;;;;;;;;5053444;28;20434;-76
2021/01/22 03:57:36;;;;;;;2.33;0.60;;;11.00;1.00;;;;;;5054133;28;20164;-77
2021/01/22 04:00:05;;;;;;;0.90;0.50;;;11.00;1.00;;;;;;5053797;28;20405;-77
2021/01/22 04:02:31;;;;;;;2.17;0.57;;;11.00;1.00;;;;;;5048684;28;20203;-74
2021/01/22 04:04:57;;;;;;;1.27;0.57;;;;;;;;;;5032524;28;20451;-74
2021/01/22 04:07:22;;;;;;;1.67;0.60;;;;;;;;;;5044147;28;20183;-74
2021/01/22 04:09:48;;;;;;;0.97;0.60;;;;;;;;;;5053471;28;20497;-74
2021/01/22 04:12:14;;;;;;;11.50;1.00;;;10.90;1.00;;;;;;5053781;28;20453;-77
2021/01/22 04:14:40;;;;;;;1.43;0.67;;;;;;;;;;5053362;28;20818;-76
2021/01/22 04:17:06;;;;;;;0.90;0.60;;;10.90;1.00;;;;;;5051329;28;20189;-76
2021/01/22 04:19:32;;;;;;;0.80;0.70;;;;;;;;;;5053506;28;20403;-77
2021/01/22 04:21:58;;;;;;;0.70;0.70;;;;;;;;;;5053574;28;20179;-77
2021/01/22 04:24:23;;;;;;;0.77;0.60;;;11.00;1.00;;;;;;5053493;28;20448;-77
2021/01/22 04:26:51;;;;;;;2.50;0.60;;;;;;;;;;5053654;28;20402;-76
2021/01/22 04:29:17;;;;;;;4.00;0.70;;;11.00;1.00;;;;;;5053586;28;20156;-75
2021/01/22 04:31:43;;;;;;;2.60;0.80;;;;;;;;;;5050459;28;20582;-74
2021/01/22 04:34:08;;;;;;;1.00;0.80;;;11.00;1.00;;;;;;5051821;28;20206;-77
2021/01/22 04:36:34;;;;;;;1.03;0.70;;;11.00;1.00;;;;;;5053186;28;20413;-77
2021/01/22 04:39:00;;;;;;;0.70;0.63;;;11.00;1.00;;;;;;5051687;28;20634;-74
2021/01/22 04:41:26;;;;;;;3.73;0.83;;;;;;;;;;5044847;28;20498;-74
2021/01/22 04:43:52;;;;;;;0.97;0.60;;;10.90;1.00;;;;;;5033308;28;20169;-76
2021/01/22 04:46:18;;;;;;;0.90;0.57;;;;;;;;;;5032986;28;20403;-77
2021/01/22 04:48:44;;;;;;;1.00;0.70;;;10.90;1.00;;;;;;5047511;28;20209;-77
2021/01/22 04:51:11;;;;;;;1.53;1.00;;;10.90;1.00;;;;;;5052795;28;20819;-76
2021/01/22 04:53:39;;;;;;;0.50;0.50;;;10.90;1.00;;;;;;5052976;28;20869;-77
2021/01/22 04:56:08;;;;;;;1.27;0.70;;;10.90;1.00;;;;;;5052941;28;20401;-76
2021/01/22 04:58:38;;;;;;;0.60;0.60;;;10.90;1.00;;;;;;5053291;28;20617;-76
2021/01/22 05:01:04;;;;;;;4.83;0.60;;;10.90;1.00;;;;;;5051455;28;20407;-77
2021/01/22 05:03:30;;;;;;;3.17;0.70;;;10.80;1.00;;;;;;5046234;28;20472;-76
2021/01/22 05:05:57;;;;;;;1.87;0.80;;;10.80;1.00;;;;;;5050126;28;20441;-77
2021/01/22 05:08:23;;;;;;;1.00;0.60;;;10.80;1.00;;;;;;5052737;28;20226;-76
2021/01/22 05:10:49;;;;;;;1.47;0.70;;;10.80;1.00;;;;;;5052827;28;20450;-78
2021/01/22 05:13:15;;;;;;;2.20;0.70;;;;;;;;;;5052946;28;20435;-74
2021/01/22 05:15:41;;;;;;;2.30;0.63;;;10.80;1.00;;;;;;5052141;28;20392;-75
2021/01/22 05:18:08;;;;;;;5.00;0.70;;;;;;;;;;5042702;28;20452;-74
2021/01/22 05:20:43;;;;;;;3.00;1.00;;;10.70;1.00;;;;;;5052659;28;20156;-75
2021/01/22 05:23:10;;;;;;;1.60;1.10;;;10.80;1.00;;;;;;5052745;28;20891;-75
2021/01/22 05:26:02;;;;;;;0.70;0.70;;;10.70;1.00;;;;;;5052686;28;20394;-75
2021/01/22 05:28:41;;;;;;;1.27;0.93;;;10.70;1.00;;;;;;5052808;28;20893;-75
2021/01/22 05:31:09;;;;;;;0.83;0.80;;;10.70;1.00;;;;;;5050812;28;20561;-76
2021/01/22 05:33:35;;;;;;;0.93;0.83;;;10.70;1.00;;;;;;5052293;28;20410;-76
2021/01/22 05:36:20;;;;;;;0.73;0.70;;;10.70;1.00;;;;;;5052553;28;20466;-75
2021/01/22 05:38:45;;;;;;;1.53;0.80;;;10.70;1.00;;;;;;5052226;28;20743;-76
2021/01/22 05:41:11;;;;;;;1.57;0.90;;;10.70;1.00;;;;;;5046162;28;20501;-75
2021/01/22 05:43:37;;;;;;;1.00;0.60;;;10.70;1.00;;;;;;5032559;28;20168;-75
2021/01/22 05:46:10;;;;;;;0.70;0.70;;;10.60;1.00;;;;;;5032470;28;20207;-76
2021/01/22 05:48:36;;;;;;;0.90;0.60;;;10.70;1.00;;;;;;5032325;28;20411;-75
2021/01/22 05:51:02;;;;;;;0.70;0.67;;;;;;;;;;5032399;28;20445;-75
2021/01/22 05:53:29;;;;;;;0.60;0.60;;;;;;;;;;5032465;28;20584;-75
2021/01/22 05:56:08;;;;;;;1.83;1.10;;;10.70;1.00;;;;;;5049078;28;20753;-75
2021/01/22 05:58:34;;;;;;;1.13;0.57;;;10.70;1.00;;;;;;5052638;28;20482;-75
2021/01/22 06:01:20;;;;;;;4.10;1.13;;;10.60;1.00;;;;;;5056383;28;20399;-75
2021/01/22 06:03:50;;;;;;;4.57;0.77;;;10.70;1.00;;;;;;5040769;28;21039;-74
2021/01/22 06:06:17;;;;;;;5.13;0.70;;;10.60;1.00;;;;;;5035414;28;20443;-75
2021/01/22 06:08:59;;;;;;;1.57;0.87;;;10.60;1.00;;;;;;5047192;28;20442;-75
2021/01/22 06:11:28;;;;;;;1.73;0.70;;;10.60;1.00;;;;;;5035739;28;20442;-75
2021/01/22 06:13:55;;;;;;;10.73;0.90;;;10.60;1.00;;;;;;5045787;28;20430;-76
2021/01/22 06:16:25;;;;;;;4.23;1.10;;;10.60;1.00;;;;;;5055711;28;20391;-75
2021/01/22 06:19:07;;;;;;;1.27;0.50;;;10.60;1.00;;;;;;5054205;28;20429;-74
2021/01/22 06:21:37;;;;;;;2.10;0.73;;;;;;;;;;5055741;28;20426;-74
2021/01/22 06:24:04;;;;;;;1.47;0.70;;;10.50;1.00;;;;;;5055415;28;20430;-75
2021/01/22 06:26:32;;;;;;;1.70;0.70;;;10.40;1.00;;;;;;5055550;28;20399;-75
2021/01/22 06:29:02;;;;;;;1.17;0.63;;;10.50;1.00;;;;;;5054571;28;21009;-76
2021/01/22 06:31:29;;;;;;;1.10;0.80;;;;;;;;;;5055290;28;20511;-76
2021/01/22 06:33:56;;;;;;;1.97;1.00;;;10.40;1.00;;;;;;5048845;28;20835;-76
2021/01/22 06:36:23;;;;;;;2.00;0.70;;;10.40;1.00;;;;;;5052133;28;20517;-76
2021/01/22 06:38:50;;;;;;;3.90;0.80;;;10.30;1.00;;;;;;5040688;28;20427;-77
2021/01/22 06:41:25;;;;;;;1.70;0.87;;;10.30;1.00;;;;;;5035253;28;20415;-77
2021/01/22 06:43:52;;;;;;;7.73;0.83;;;10.20;1.00;;;;;;5035192;28;20402;-76
2021/01/22 06:46:20;;;;;;;4.93;1.07;;;10.10;1.00;;;;;;5035164;28;20775;-73
2021/01/22 06:48:55;;;;;;;6.50;0.80;;;9.80;1.00;;;;;;5052746;28;20415;-74
2021/01/22 06:51:22;;;;;;;5.27;0.60;;;9.70;1.00;;;;;;5053551;28;20587;-74
2021/01/22 06:54:07;;;;;;;0.40;0.40;;;9.50;1.00;;;;;;5047165;28;20948;-74
2021/01/22 06:56:35;;;;;;;0.40;0.40;;;9.30;1.00;;;;;;5034949;28;20426;-74
2021/01/22 06:59:24;;;;;;;0.40;0.30;;;8.90;1.00;;;;;;5039046;28;20430;-75
2021/01/22 07:01:51;;;;;;;1.27;0.40;;;8.80;1.00;;;;;;5048224;28;20760;-74
2021/01/22 07:04:40;;;;;;;0.50;0.50;;;8.60;1.00;;;;;;5051846;28;20406;-74
2021/01/22 07:07:09;;;;;;;0.40;0.40;;;8.10;1.00;;;;;;5038456;28;20431;-74
2021/01/22 07:09:49;;;;;;;0.40;0.40;;;7.90;1.00;;;;;;5033835;28;20468;-75
2021/01/22 07:12:39;;;;;;;0.30;0.30;;;7.80;1.00;;;;;;5042829;28;20476;-74
2021/01/22 07:15:31;;;;;;;0.43;0.43;;;7.70;1.00;;;;;;5051635;28;20557;-77
2021/01/22 07:17:59;;;;;;;0.60;0.40;;;7.60;1.00;;;;;;5044485;28;20457;-77
2021/01/22 07:20:28;;;;;;;2.07;0.50;;;7.50;1.00;;;;;;5038100;28;20436;-75
2021/01/22 07:22:54;;;;;;;1.63;0.53;;;7.50;1.00;;;;;;5038083;28;20512;-74
2021/01/22 07:25:55;;;;;;;0.40;0.40;;;7.40;1.00;;;;;;5047692;28;20446;-77
2021/01/22 07:28:22;;;;;;;0.40;0.30;;;7.20;1.00;;;;;;5028525;28;20454;-74
2021/01/22 07:30:48;;;;;;;0.40;0.40;;;7.20;1.00;;;;;;5024423;28;20862;-75
2021/01/22 07:33:26;;;;;;;0.70;0.40;;;7.20;1.00;;;;;;5030074;28;20950;-75
2021/01/22 07:36:02;;;;;;;0.40;0.30;;;7.10;1.00;;;;;;5027658;28;21070;-74
2021/01/22 07:38:29;;;;;;;0.40;0.30;;;7.10;1.00;;;;;;5031442;28;20422;-75
2021/01/22 07:40:55;;;;;;;0.30;0.30;;;7.20;1.00;;;;;;5030158;28;20914;-75
2021/01/22 07:43:23;;;;;;;0.47;0.40;;;7.20;1.00;;;;;;5027105;28;20450;-76
2021/01/22 07:45:49;;;;;;;0.53;0.37;;;;;;;;;;5018783;28;20499;-75
2021/01/22 07:48:28;;;;;;;0.40;0.30;;;7.30;1.00;;;;;;5022428;28;20996;-74
2021/01/22 07:50:53;;;;;;;1.07;0.30;;;7.30;1.00;;;;;;5031620;28;20516;-76
2021/01/22 07:53:19;;;;;;;8.63;0.50;;;;;;;;;;5031108;28;20419;-76
2021/01/22 07:55:52;;;;;;;0.87;0.40;;;7.30;1.00;;;;;;5031328;28;20175;-74
2021/01/22 07:58:18;;;;;;;2.13;0.60;;;7.30;1.00;;;;;;5031449;28;20488;-75
2021/01/22 08:00:44;;;;;;;3.50;0.60;;;;;;;;;;5031574;28;20914;-74
2021/01/22 08:03:13;;;;;;;1.00;0.63;;;7.40;1.00;;;;;;5021294;28;20423;-75
2021/01/22 08:05:39;;;;;;;0.90;0.50;;;7.40;1.00;;;;;;5045997;28;20429;-75
2021/01/22 08:08:23;;;;;;;0.50;0.40;;;7.50;1.00;;;;;;5037678;28;20411;-75
2021/01/22 08:14:34;;;;;;;0.90;0.30;;;7.40;1.00;;;;;;5027805;28;20422;-76
2021/01/22 08:17:19;;;;;;;2.20;0.53;;;7.50;1.00;;;;;;5045897;28;20846;-77
2021/01/22 08:20:08;;;;;;;2.70;0.50;;;7.40;1.00;;;;;;5040168;28;20427;-77
2021/01/22 08:22:37;;;;;;;0.87;0.57;;;7.50;1.00;;;;;;5034556;28;20438;-77
2021/01/22 08:25:12;;;;;;;0.97;0.50;;;7.50;1.00;;;;;;5033454;28;20399;-77
2021/01/22 08:28:10;;;;;;;0.60;0.40;;;7.50;1.00;;;;;;5033982;28;20419;-77
2021/01/22 08:30:37;;;;;;;0.43;0.43;;;7.40;1.00;;;;;;5049561;28;20441;-76
2021/01/22 08:33:04;;;;;;;3.53;0.50;;;7.50;1.00;;;;;;5050727;28;20472;-76
2021/01/22 08:35:30;;;;;;;0.40;0.40;;;7.40;1.00;;;;;;5050553;28;20429;-75
2021/01/22 08:37:59;;;;;;;0.60;0.33;;;7.50;1.00;;;;;;5050297;28;20422;-76
2021/01/22 08:40:40;;;;;;;0.30;0.30;;;7.50;1.00;;;;;;5050469;28;20430;-77
2021/01/22 08:43:09;;;;;;;0.70;0.43;;;7.50;1.00;;;;;;5035558;28;20839;-75
2021/01/22 08:45:35;;;;;;;0.40;0.40;;;7.60;1.00;;;;;;5050682;28;20981;-75
2021/01/22 08:48:01;;;;;;;0.83;0.50;;;7.60;1.00;;;;;;5050386;28;20450;-75
2021/01/22 08:50:27;;;;;;;0.60;0.40;;;;;;;;;;5050252;28;20437;-75
2021/01/22 08:53:07;;;;;;;0.60;0.40;;;7.60;1.00;;;;;;5048693;28;20203;-75
2021/01/22 08:55:33;;;;;;;0.60;0.50;;;;;;;;;;5050162;28;20422;-77
2021/01/22 08:58:01;;;;;;;1.13;0.40;;;7.50;1.00;;;;;;5050554;28;20897;-76
2021/01/22 09:00:38;;;;;;;4.67;0.60;;;7.60;1.00;;;;;;5050175;28;20414;-75
2021/01/22 09:03:18;;;;;;;0.70;0.50;;;7.60;1.00;;;;;;5047827;28;20464;-75
2021/01/22 09:05:55;;;;;;;0.30;0.30;;;7.60;1.00;;;;;;5051102;28;20406;-75
2021/01/22 09:08:25;;;;;;;0.93;0.60;;;7.60;1.00;;;;;;5040900;28;20410;-74
2021/01/22 09:10:55;;;;;;;0.60;0.50;;;7.50;1.00;;;;;;5053314;28;20493;-75
2021/01/22 09:13:27;;;;;;;0.60;0.60;;;7.50;1.00;;;;;;5053655;28;20459;-74
2021/01/22 09:16:08;;;;;;;2.40;0.50;;;7.40;1.00;;;;;;5054077;28;20418;-76
2021/01/22 09:21:56;;;;;;;0.40;0.40;;;7.30;1.00;;;;;;5033224;28;20524;-77
2021/01/22 09:25:07;;;;;;;0.40;0.40;;;7.50;1.00;;;;;;5033502;28;20901;-77
2021/01/22 09:27:50;;;;;;;0.50;0.50;;;7.50;1.00;;;;;;5033421;28;20627;-77
2021/01/22 09:31:07;;;;;;;0.50;0.50;;;7.50;1.00;;;;;;5033659;28;20410;-74
2021/01/22 09:33:33;;;;;;;0.60;0.50;;;7.50;1.00;;;;;;5033491;28;20400;-74
2021/01/22 09:36:13;;;;;;;2.20;0.63;;;7.50;1.00;;;;;;5037295;28;20375;-75
2021/01/22 09:38:39;;;;;;;0.50;0.47;;;7.50;1.00;;;;;;5037162;28;20157;-74
2021/01/22 09:41:07;;;;;;;1.77;0.57;;;7.30;1.00;;;;;;5037029;28;20398;-74
2021/01/22 09:43:33;;;;;;;1.83;0.90;;;7.20;1.00;;;;;;5037069;28;20619;-75
2021/01/22 09:45:59;;;;;;;4.30;0.50;;;7.30;1.00;;;;;;5037487;28;20383;-75
2021/01/22 09:48:25;;;;;;;0.87;0.40;;;;;;;;;;5037157;28;20414;-74
2021/01/22 09:50:55;;;;;;;0.70;0.47;;;7.20;1.00;;;;;;5037020;28;20160;-75
2021/01/22 09:53:21;;;;;;;0.40;0.40;;;7.20;1.00;;;;;;5036893;28;20398;-75
2021/01/22 09:55:55;;;;;;;0.60;0.50;;;8.70;1.00;;;;;;5042139;28;20410;-76
2021/01/22 09:58:21;;;;;;;0.47;0.40;;;7.30;1.00;;;;;;5058483;28;20152;-75
2021/01/22 10:00:47;;;;;;;0.50;0.50;;;;;;;;;;5057568;28;20394;-74
2021/01/22 10:03:13;;;;;;;0.60;0.50;;;7.30;1.00;;;;;;5056790;28;20171;-75
2021/01/22 10:05:45;;;;;;;2.23;0.70;;;;;;;;;;5056688;28;20470;-74
2021/01/22 10:08:11;;;;;;;0.87;0.40;;;;;;;;;;5054547;28;20172;-74
2021/01/22 10:10:36;;;;;;;0.50;0.50;;;7.50;1.00;;;;;;5038734;28;20415;-74
2021/01/22 10:13:02;;;;;;;0.50;0.40;;;;;;;;;;5056320;28;20401;-74
2021/01/22 10:15:29;;;;;;;0.50;0.50;;;7.50;1.00;;;;;;5049916;28;20263;-76
2021/01/22 10:17:57;;;;;;;0.63;0.57;;;7.50;1.00;;;;;;5036405;28;20411;-76
2021/01/22 10:20:23;;;;;;;0.40;0.40;;;7.50;1.00;;;;;;5036395;28;20482;-76
2021/01/22 10:22:49;;;;;;;0.50;0.50;;;7.50;1.00;;;;;;5036728;28;20484;-77
2021/01/22 10:25:19;;;;;;;0.83;0.40;;;8.60;1.00;;;;;;5036398;28;20204;-77
2021/01/22 10:27:49;;;;;;;0.50;0.50;;;7.40;1.00;;;;;;5035092;28;20419;-77
2021/01/22 10:30:22;;;;;;;0.40;0.40;;;7.40;1.00;;;;;;5036296;28;20764;-77
2021/01/22 10:33:01;;;;;;;0.40;0.40;;;7.50;1.00;;;;;;5036234;28;20965;-76
2021/01/22 10:35:31;;;;;;;0.50;0.40;;;7.50;1.00;;;;;;5044679;28;20913;-74
2021/01/22 10:37:57;;;;;;;1.70;0.73;;;7.60;1.00;;;;;;5056055;28;20707;-75
2021/01/22 10:40:23;;;;;;;0.40;0.40;;;7.70;1.00;;;;;;5054782;28;20501;-74
2021/01/22 10:42:49;;;;;;;1.17;0.60;;;;;;;;;;5055264;28;20164;-74
2021/01/22 10:45:15;;;;;;;0.60;0.60;;;7.70;1.00;;;;;;5047093;28;20651;-75
2021/01/22 10:47:41;;;;;;;0.40;0.40;;;;;;;;;;5040071;28;20455;-75
2021/01/22 10:50:07;;;;;;;0.50;0.47;;;7.80;1.00;;;;;;5044346;28;20184;-75
2021/01/22 10:52:33;;;;;;;0.50;0.50;;;7.80;1.00;;;;;;5048654;28;20457;-75
2021/01/22 10:54:59;;;;;;;0.40;0.40;;;7.80;1.00;;;;;;5039391;28;20415;-75
2021/01/22 10:57:25;;;;;;;0.50;0.40;;;;;;;;;;5055028;28;20399;-75
2021/01/22 10:59:55;;;;;;;0.87;0.57;;;7.80;1.00;;;;;;5040057;28;20630;-76
2021/01/22 11:02:21;;;;;;;2.30;0.60;;;7.70;1.00;;;;;;5048341;28;20434;-75
2021/01/22 11:04:47;;;;;;;0.50;0.50;;;;;;;;;;5050424;28;20794;-77
2021/01/22 11:07:13;;;;;;;2.33;0.40;;;;;;;;;;5052763;28;20192;-76
2021/01/22 11:09:39;;;;;;;0.50;0.50;;;7.50;1.00;;;;;;5054822;28;20398;-76
2021/01/22 11:12:05;;;;;;;0.40;0.40;;;;;;;;;;5054525;28;20953;-82
2021/01/22 11:14:31;;;;;;;0.53;0.53;;;;;;;;;;5051243;28;20180;-75
2021/01/22 11:17:02;;;;;;;10.13;0.60;;;7.50;1.00;;;;;;5050660;28;20423;-77
2021/01/22 11:23:02;;;;;;;0.70;0.60;;;7.40;1.00;;;;;;5050141;28;20472;-77
2021/01/22 11:32:12;;;;;;;0.40;0.40;;;7.40;1.00;;;;;;5038690;28;20516;-77
2021/01/22 11:34:44;;;;;;;1.30;0.60;;;7.30;1.00;;;;;;5048699;28;20906;-77
2021/01/22 11:44:25;;;;;;;0.40;0.40;;;7.30;1.00;;;;;;5049615;28;20401;-76
2021/01/22 11:46:51;;;;;;;0.50;0.50;;;7.30;1.00;;;;;;5054712;28;20410;-75
2021/01/22 11:49:20;;;;;;;0.40;0.40;;;7.30;1.00;;;;;;5054795;28;20447;-77
2021/01/22 11:52:10;;;;;;;1.40;0.67;;;7.30;1.00;;;;;;5054372;28;20193;-76
2021/01/22 11:54:50;;;;;;;0.70;0.70;;;7.30;1.00;;;;;;5054380;28;20770;-76
2021/01/22 11:58:01;;;;;;;0.50;0.40;;;7.30;1.00;;;;;;5049929;28;20528;-76
2021/01/22 12:00:38;;;;;;;6.17;1.43;;;7.30;1.00;;;;;;5036614;28;20410;-76
2021/01/22 12:03:25;;;;;;;0.50;0.43;;;7.30;1.00;;;;;;5055134;28;20941;-76
2021/01/22 12:05:51;;;;;;;1.00;0.60;;;7.20;1.00;;;;;;5046264;28;20470;-76
2021/01/22 12:08:17;;;;;;;0.43;0.40;;;7.30;1.00;;;;;;5033523;28;20924;-76
2021/01/22 12:10:43;;;;;;;0.40;0.40;;;;;;;;;;5033272;28;20411;-76
2021/01/22 12:13:08;;;;;;;0.50;0.50;;;7.40;1.00;;;;;;5033418;28;20156;-76
2021/01/22 12:15:34;;;;;;;0.40;0.40;;;7.50;1.00;;;;;;5033720;28;20441;-76
2021/01/22 12:18:01;;;;;;;0.40;0.40;;;7.40;1.00;;;;;;5033816;28;20195;-76
2021/01/22 12:20:26;;;;;;;0.50;0.50;;;7.30;1.00;;;;;;5033589;28;20188;-75
2021/01/22 12:22:52;;;;;;;0.40;0.40;;;;;;;;;;5033443;28;20455;-75
2021/01/22 12:25:18;;;;;;;0.77;0.47;;;7.40;1.00;;;;;;5033409;28;20662;-75
2021/01/22 12:27:44;;;;;;;0.40;0.40;;;7.50;1.00;;;;;;5033397;28;20407;-75
2021/01/22 12:30:14;;;;;;;0.40;0.40;;;7.50;1.00;;;;;;5033403;28;20400;-75
2021/01/22 12:32:39;;;;;;;0.50;0.50;;;7.60;1.00;;;;;;5033379;28;20219;-74
2021/01/22 12:35:06;;;;;;;3.47;0.50;;;;;;;;;;5033314;28;20441;-75
2021/01/22 12:37:31;;;;;;;0.80;0.60;;;7.70;1.00;;;;;;5033245;28;20160;-75
2021/01/22 12:39:58;;;;;;;3.10;0.70;;;;;;;;;;5033234;28;20400;-76
2021/01/22 12:42:23;;;;;;;0.67;0.60;;;7.80;1.00;;;;;;5033128;28;20753;-76
2021/01/22 12:44:49;;;;;;;3.27;0.60;;;;;;;;;;5032706;28;20415;-75
2021/01/22 12:47:15;;;;;;;0.60;0.60;;;;;;;;;;5033223;28;20173;-74
2021/01/22 12:49:41;;;;;;;10.13;0.70;;;7.70;1.00;;;;;;5033218;28;20406;-76
2021/01/22 12:52:07;;;;;;;10.70;2.40;;;;;;;;;;5030782;28;20973;-76
2021/01/22 12:54:33;;;;;;;2.20;0.80;;;;;;;;;;5030827;28;20188;-77
2021/01/22 12:56:59;;;;;;;1.17;0.80;;;7.70;1.00;;;;;;5039073;28;20974;-77
2021/01/22 12:59:25;;;;;;;0.70;0.70;;;7.70;1.00;;;;;;5047995;28;20425;-76
2021/01/22 13:01:51;;;;;;;0.60;0.60;;;7.70;1.00;;;;;;5052675;28;20237;-74
2021/01/22 13:04:17;;;;;;;2.83;0.83;;;;;;;;;;5053175;28;20406;-76
2021/01/22 13:06:43;;;;;;;2.30;0.67;;;7.70;1.00;;;;;;5052625;28;20195;-78
2021/01/22 13:09:09;;;;;;;3.73;0.80;;;7.70;1.00;;;;;;5054828;28;20429;-77
2021/01/22 13:11:35;;;;;;;0.60;0.60;;;;;;;;;;5054125;28;20501;-77
2021/01/22 13:14:01;;;;;;;1.00;0.53;;;;;;;;;;5039471;28;20164;-76
2021/01/22 13:16:27;;;;;;;0.50;0.50;;;7.90;1.00;;;;;;5039696;28;20769;-75
2021/01/22 13:18:53;;;;;;;0.60;0.60;;;;;;;;;;5059219;28;20485;-74
2021/01/22 13:21:19;;;;;;;0.47;0.47;;;7.90;1.00;;;;;;5059419;28;20239;-76
2021/01/22 13:23:45;;;;;;;0.80;0.60;;;8.10;1.00;;;;;;5059401;28;20408;-77
2021/01/22 13:26:16;;;;;;;2.00;0.70;;;8.20;1.00;;;;;;5059175;28;20402;-77
2021/01/22 13:28:42;;;;;;;1.00;0.43;;;;;;;;;;5059259;28;20502;-76
2021/01/22 13:31:08;;;;;;;1.97;0.50;;;;;;;;;;5059177;28;20465;-76
2021/01/22 13:33:34;;;;;;;0.73;0.50;;;8.10;1.00;;;;;;5059397;28;20428;-76
2021/01/22 13:36:00;;;;;;;0.50;0.50;;;8.10;1.00;;;;;;5059242;28;20447;-77
2021/01/22 13:38:26;;;;;;;4.90;0.47;;;8.20;1.00;;;;;;5057708;28;20516;-76
2021/01/22 13:40:53;;;;;;;5.30;1.10;;;8.30;1.00;;;;;;5059001;28;20398;-76
2021/01/22 13:43:19;;;;;;;0.60;0.60;;;8.30;1.00;;;;;;5058909;28;20754;-77
2021/01/22 13:46:31;;;;;;;0.70;0.50;;;8.20;1.00;;;;;;5056880;28;20741;-76
2021/01/22 13:49:14;;;;;;;0.77;0.47;;;8.20;1.00;;;;;;5054175;28;20469;-75
2021/01/22 13:51:44;;;;;;;0.50;0.50;;;8.20;1.00;;;;;;5059942;28;20450;-75
2021/01/22 13:54:49;;;;;;;1.20;0.70;;;8.20;1.00;;;;;;5053753;28;20902;-75
2021/01/22 13:57:20;;;;;;;0.60;0.60;;;8.20;1.00;;;;;;5043421;28;20496;-76
2021/01/22 13:59:50;;;;;;;3.03;0.60;;;8.10;1.00;;;;;;5043462;28;20437;-74
2021/01/22 14:02:26;;;;;;;0.63;0.63;;;8.10;1.00;;;;;;5046476;28;20429;-74